Lanai Airport Lanai City US
ICAO: PHNY
IATA:
Category: Medium
Scheduled Services:

Elevation: 1308 ft
TransAlt. 0 ft.

Airport Communications:
ASOS:118.375
HONOLULU CNTR:119.3
CTAF:122.9
RDO:117.7

PHNY Zoom In..

If you have problems with the map follow the link
https://www.worldairports.se/pages/airport.php?
ICAO=PHNY

Runways:

(A) RW 03 length 5001 ft width 150 ft
ILS 111.10 / hdg 33

(B) RW 21 length 5001 ft width 150 ft
---- / hdg 213

Location; PHNY
Day. 21 / Time. 05.56 Zulu
* Altimeter: 30.17
* Temperature: 18° c. 64.4°f.
* Wind from: 040° Speed 06 kn.
Dewpoint: 18° c.
Visibility: 1 m.
Clouds: Clear (automated report).
Conditions: Mist.

PHNY 210556Z AUTO 04006KT 1 1/4SM BR CLR 18/18 A3017 RMK AO2 SLP200 T01830183 10233 20183 53015 PWINO $


Wind From 040°
Speed 06 kn.

 
 
jpsmedia worldairports.se 2020   terms of use